sensor_id;sensor_type;location;lat;lon;timestamp;P1;durP1;ratioP1;P2;durP2;ratioP2
6374;SDS011;35400;45.472;-122.822;2022-12-07T00:03:45;16.77;;;11.63;;
6374;SDS011;35400;45.472;-122.822;2022-12-07T00:06:14;17.57;;;11.10;;
6374;SDS011;35400;45.472;-122.822;2022-12-07T00:08:42;16.23;;;11.33;;
6374;SDS011;35400;45.472;-122.822;2022-12-07T00:11:11;17.47;;;12.27;;
6374;SDS011;35400;45.472;-122.822;2022-12-07T00:13:40;16.50;;;11.53;;
6374;SDS011;35400;45.472;-122.822;2022-12-07T00:16:09;17.73;;;12.00;;
6374;SDS011;35400;45.472;-122.822;2022-12-07T00:18:37;15.00;;;11.53;;
6374;SDS011;35400;45.472;-122.822;2022-12-07T00:21:05;15.10;;;11.73;;
6374;SDS011;35400;45.472;-122.822;2022-12-07T00:23:35;17.50;;;12.10;;
6374;SDS011;35400;45.472;-122.822;2022-12-07T00:26:06;16.33;;;11.47;;
6374;SDS011;35400;45.472;-122.822;2022-12-07T00:28:35;14.97;;;10.90;;
6374;SDS011;35400;45.472;-122.822;2022-12-07T00:31:07;16.77;;;12.33;;
6374;SDS011;35400;45.472;-122.822;2022-12-07T00:33:36;18.87;;;12.47;;
6374;SDS011;35400;45.472;-122.822;2022-12-07T00:36:05;17.00;;;12.23;;
6374;SDS011;35400;45.472;-122.822;2022-12-07T00:38:34;14.70;;;11.87;;
6374;SDS011;35400;45.472;-122.822;2022-12-07T00:41:07;15.63;;;11.53;;
6374;SDS011;35400;45.472;-122.822;2022-12-07T00:43:41;18.47;;;12.13;;
6374;SDS011;35400;45.472;-122.822;2022-12-07T00:46:09;17.80;;;12.30;;
6374;SDS011;35400;45.472;-122.822;2022-12-07T00:48:37;15.30;;;11.63;;
6374;SDS011;35400;45.472;-122.822;2022-12-07T00:51:05;16.53;;;11.87;;
6374;SDS011;35400;45.472;-122.822;2022-12-07T00:53:36;17.53;;;11.73;;
6374;SDS011;35400;45.472;-122.822;2022-12-07T00:56:22;16.10;;;11.97;;
6374;SDS011;35400;45.472;-122.822;2022-12-07T00:58:55;17.63;;;11.60;;
6374;SDS011;35400;45.472;-122.822;2022-12-07T01:01:25;22.57;;;15.60;;
6374;SDS011;35400;45.472;-122.822;2022-12-07T01:03:55;20.57;;;14.33;;
6374;SDS011;35400;45.472;-122.822;2022-12-07T01:06:22;25.43;;;15.33;;
6374;SDS011;35400;45.472;-122.822;2022-12-07T01:08:50;24.37;;;16.10;;
6374;SDS011;35400;45.472;-122.822;2022-12-07T01:11:18;22.87;;;14.60;;
6374;SDS011;35400;45.472;-122.822;2022-12-07T01:13:49;26.40;;;15.53;;
6374;SDS011;35400;45.472;-122.822;2022-12-07T01:16:17;23.40;;;14.77;;
6374;SDS011;35400;45.472;-122.822;2022-12-07T01:18:46;24.67;;;16.37;;
6374;SDS011;35400;45.472;-122.822;2022-12-07T01:23:43;25.57;;;16.50;;
6374;SDS011;35400;45.472;-122.822;2022-12-07T01:26:11;22.13;;;14.60;;
6374;SDS011;35400;45.472;-122.822;2022-12-07T01:28:40;23.93;;;15.63;;
6374;SDS011;35400;45.472;-122.822;2022-12-07T01:31:11;24.37;;;16.63;;
6374;SDS011;35400;45.472;-122.822;2022-12-07T01:33:41;25.57;;;16.37;;
6374;SDS011;35400;45.472;-122.822;2022-12-07T01:36:19;25.90;;;15.77;;
6374;SDS011;35400;45.472;-122.822;2022-12-07T01:38:49;25.83;;;16.07;;
6374;SDS011;35400;45.472;-122.822;2022-12-07T01:41:18;26.57;;;18.67;;
6374;SDS011;35400;45.472;-122.822;2022-12-07T01:46:34;28.60;;;17.77;;
6374;SDS011;35400;45.472;-122.822;2022-12-07T01:49:01;24.90;;;16.67;;
6374;SDS011;35400;45.472;-122.822;2022-12-07T01:51:31;25.43;;;16.83;;
6374;SDS011;35400;45.472;-122.822;2022-12-07T01:53:59;30.27;;;19.07;;
6374;SDS011;35400;45.472;-122.822;2022-12-07T01:56:27;26.90;;;17.93;;
6374;SDS011;35400;45.472;-122.822;2022-12-07T01:58:55;25.27;;;16.43;;
6374;SDS011;35400;45.472;-122.822;2022-12-07T02:01:24;23.60;;;16.17;;
6374;SDS011;35400;45.472;-122.822;2022-12-07T02:03:51;20.17;;;15.37;;
6374;SDS011;35400;45.472;-122.822;2022-12-07T02:06:21;22.80;;;15.93;;
6374;SDS011;35400;45.472;-122.822;2022-12-07T02:08:50;22.60;;;14.93;;
6374;SDS011;35400;45.472;-122.822;2022-12-07T02:11:17;22.77;;;15.57;;
6374;SDS011;35400;45.472;-122.822;2022-12-07T02:13:45;22.53;;;16.43;;
6374;SDS011;35400;45.472;-122.822;2022-12-07T02:30:46;24.90;;;16.80;;
6374;SDS011;35400;45.472;-122.822;2022-12-07T02:33:21;27.87;;;16.43;;
6374;SDS011;35400;45.472;-122.822;2022-12-07T02:36:50;22.50;;;15.60;;
6374;SDS011;35400;45.472;-122.822;2022-12-07T02:39:00;22.73;;;15.37;;
6374;SDS011;35400;45.472;-122.822;2022-12-07T02:41:43;21.30;;;15.03;;
6374;SDS011;35400;45.472;-122.822;2022-12-07T02:44:18;22.83;;;15.40;;
6374;SDS011;35400;45.472;-122.822;2022-12-07T02:46:54;24.17;;;15.33;;
6374;SDS011;35400;45.472;-122.822;2022-12-07T02:49:30;24.20;;;15.67;;
6374;SDS011;35400;45.472;-122.822;2022-12-07T02:51:58;21.87;;;15.20;;
6374;SDS011;35400;45.472;-122.822;2022-12-07T02:54:25;22.57;;;14.67;;
6374;SDS011;35400;45.472;-122.822;2022-12-07T02:56:54;23.80;;;15.00;;
6374;SDS011;35400;45.472;-122.822;2022-12-07T03:02:36;20.33;;;14.67;;
6374;SDS011;35400;45.472;-122.822;2022-12-07T03:08:22;21.80;;;15.43;;
6374;SDS011;35400;45.472;-122.822;2022-12-07T03:16:04;21.43;;;14.73;;
6374;SDS011;35400;45.472;-122.822;2022-12-07T03:18:53;21.50;;;14.73;;
6374;SDS011;35400;45.472;-122.822;2022-12-07T03:21:32;20.43;;;14.50;;
6374;SDS011;35400;45.472;-122.822;2022-12-07T03:24:07;20.97;;;15.23;;
6374;SDS011;35400;45.472;-122.822;2022-12-07T03:26:38;21.67;;;15.17;;
6374;SDS011;35400;45.472;-122.822;2022-12-07T03:29:12;20.87;;;15.13;;
6374;SDS011;35400;45.472;-122.822;2022-12-07T03:31:47;20.53;;;14.73;;
6374;SDS011;35400;45.472;-122.822;2022-12-07T03:34:23;21.27;;;15.03;;
6374;SDS011;35400;45.472;-122.822;2022-12-07T03:37:40;21.63;;;14.23;;
6374;SDS011;35400;45.472;-122.822;2022-12-07T03:42:45;25.97;;;16.60;;
6374;SDS011;35400;45.472;-122.822;2022-12-07T03:45:13;24.77;;;17.00;;
6374;SDS011;35400;45.472;-122.822;2022-12-07T03:47:43;23.00;;;17.00;;
6374;SDS011;35400;45.472;-122.822;2022-12-07T03:50:25;23.63;;;16.73;;
6374;SDS011;35400;45.472;-122.822;2022-12-07T03:53:26;20.53;;;16.13;;
6374;SDS011;35400;45.472;-122.822;2022-12-07T03:56:06;23.07;;;16.87;;
6374;SDS011;35400;45.472;-122.822;2022-12-07T03:58:34;22.80;;;15.43;;
6374;SDS011;35400;45.472;-122.822;2022-12-07T04:01:02;22.83;;;15.97;;
6374;SDS011;35400;45.472;-122.822;2022-12-07T04:03:29;22.10;;;16.47;;
6374;SDS011;35400;45.472;-122.822;2022-12-07T04:05:56;23.77;;;15.93;;
6374;SDS011;35400;45.472;-122.822;2022-12-07T04:08:25;20.80;;;15.07;;
6374;SDS011;35400;45.472;-122.822;2022-12-07T04:10:52;19.37;;;14.60;;
6374;SDS011;35400;45.472;-122.822;2022-12-07T04:13:18;21.10;;;15.07;;
6374;SDS011;35400;45.472;-122.822;2022-12-07T04:15:46;21.10;;;14.33;;
6374;SDS011;35400;45.472;-122.822;2022-12-07T04:18:13;23.27;;;15.40;;
6374;SDS011;35400;45.472;-122.822;2022-12-07T04:20:39;20.77;;;15.37;;
6374;SDS011;35400;45.472;-122.822;2022-12-07T04:23:06;21.57;;;15.50;;
6374;SDS011;35400;45.472;-122.822;2022-12-07T04:25:33;22.57;;;16.13;;
6374;SDS011;35400;45.472;-122.822;2022-12-07T04:28:00;24.70;;;15.10;;
6374;SDS011;35400;45.472;-122.822;2022-12-07T04:30:27;22.70;;;16.33;;
6374;SDS011;35400;45.472;-122.822;2022-12-07T04:32:54;25.43;;;17.80;;
6374;SDS011;35400;45.472;-122.822;2022-12-07T04:35:25;21.60;;;16.27;;
6374;SDS011;35400;45.472;-122.822;2022-12-07T04:37:52;26.90;;;16.73;;
6374;SDS011;35400;45.472;-122.822;2022-12-07T04:40:19;24.20;;;15.80;;
6374;SDS011;35400;45.472;-122.822;2022-12-07T04:42:45;24.80;;;16.57;;
6374;SDS011;35400;45.472;-122.822;2022-12-07T04:45:13;21.50;;;15.97;;
6374;SDS011;35400;45.472;-122.822;2022-12-07T04:47:39;22.33;;;16.70;;
6374;SDS011;35400;45.472;-122.822;2022-12-07T04:50:06;25.00;;;17.03;;
6374;SDS011;35400;45.472;-122.822;2022-12-07T04:52:34;24.13;;;17.30;;
6374;SDS011;35400;45.472;-122.822;2022-12-07T04:55:02;22.80;;;15.63;;
6374;SDS011;35400;45.472;-122.822;2022-12-07T04:57:28;24.87;;;17.47;;
6374;SDS011;35400;45.472;-122.822;2022-12-07T04:59:55;21.90;;;17.10;;
6374;SDS011;35400;45.472;-122.822;2022-12-07T05:02:22;26.13;;;17.43;;
6374;SDS011;35400;45.472;-122.822;2022-12-07T05:04:49;25.37;;;17.13;;
6374;SDS011;35400;45.472;-122.822;2022-12-07T05:07:17;22.63;;;16.53;;
6374;SDS011;35400;45.472;-122.822;2022-12-07T05:09:44;23.10;;;17.10;;
6374;SDS011;35400;45.472;-122.822;2022-12-07T05:12:11;26.47;;;17.00;;
6374;SDS011;35400;45.472;-122.822;2022-12-07T05:14:39;23.77;;;17.47;;
6374;SDS011;35400;45.472;-122.822;2022-12-07T05:17:06;24.23;;;17.03;;
6374;SDS011;35400;45.472;-122.822;2022-12-07T05:19:33;28.67;;;18.87;;
6374;SDS011;35400;45.472;-122.822;2022-12-07T05:22:00;24.30;;;16.43;;
6374;SDS011;35400;45.472;-122.822;2022-12-07T05:24:27;23.67;;;17.03;;
6374;SDS011;35400;45.472;-122.822;2022-12-07T05:26:54;24.93;;;16.13;;
6374;SDS011;35400;45.472;-122.822;2022-12-07T05:29:20;24.57;;;16.43;;
6374;SDS011;35400;45.472;-122.822;2022-12-07T05:31:47;24.30;;;16.30;;
6374;SDS011;35400;45.472;-122.822;2022-12-07T05:34:14;24.73;;;16.70;;
6374;SDS011;35400;45.472;-122.822;2022-12-07T05:36:41;26.23;;;16.97;;
6374;SDS011;35400;45.472;-122.822;2022-12-07T05:39:09;24.10;;;15.90;;
6374;SDS011;35400;45.472;-122.822;2022-12-07T05:41:36;23.57;;;16.40;;
6374;SDS011;35400;45.472;-122.822;2022-12-07T05:44:21;24.10;;;17.43;;
6374;SDS011;35400;45.472;-122.822;2022-12-07T05:46:48;30.33;;;19.20;;
6374;SDS011;35400;45.472;-122.822;2022-12-07T05:49:15;30.20;;;19.13;;
6374;SDS011;35400;45.472;-122.822;2022-12-07T05:51:42;29.43;;;18.83;;
6374;SDS011;35400;45.472;-122.822;2022-12-07T05:54:09;28.43;;;18.30;;
6374;SDS011;35400;45.472;-122.822;2022-12-07T05:56:36;30.87;;;19.67;;
6374;SDS011;35400;45.472;-122.822;2022-12-07T05:59:03;31.63;;;20.60;;
6374;SDS011;35400;45.472;-122.822;2022-12-07T06:01:52;26.53;;;17.77;;
6374;SDS011;35400;45.472;-122.822;2022-12-07T06:04:20;24.90;;;17.07;;
6374;SDS011;35400;45.472;-122.822;2022-12-07T06:06:48;22.30;;;16.20;;
6374;SDS011;35400;45.472;-122.822;2022-12-07T06:09:15;23.87;;;15.23;;
6374;SDS011;35400;45.472;-122.822;2022-12-07T06:11:43;26.07;;;16.93;;
6374;SDS011;35400;45.472;-122.822;2022-12-07T06:14:29;24.10;;;16.07;;
6374;SDS011;35400;45.472;-122.822;2022-12-07T06:16:56;24.20;;;16.23;;
6374;SDS011;35400;45.472;-122.822;2022-12-07T06:19:23;24.93;;;17.03;;
6374;SDS011;35400;45.472;-122.822;2022-12-07T06:21:50;23.80;;;17.10;;
6374;SDS011;35400;45.472;-122.822;2022-12-07T06:24:18;26.43;;;17.87;;
6374;SDS011;35400;45.472;-122.822;2022-12-07T06:26:45;27.30;;;18.13;;
6374;SDS011;35400;45.472;-122.822;2022-12-07T06:29:12;27.20;;;17.90;;
6374;SDS011;35400;45.472;-122.822;2022-12-07T06:31:39;26.53;;;15.57;;
6374;SDS011;35400;45.472;-122.822;2022-12-07T06:34:09;25.90;;;18.17;;
6374;SDS011;35400;45.472;-122.822;2022-12-07T06:36:39;23.63;;;16.70;;
6374;SDS011;35400;45.472;-122.822;2022-12-07T06:39:06;28.33;;;17.77;;
6374;SDS011;35400;45.472;-122.822;2022-12-07T06:41:35;24.20;;;16.63;;
6374;SDS011;35400;45.472;-122.822;2022-12-07T06:44:03;24.03;;;17.50;;
6374;SDS011;35400;45.472;-122.822;2022-12-07T06:46:31;27.40;;;18.30;;
6374;SDS011;35400;45.472;-122.822;2022-12-07T06:48:58;36.37;;;23.47;;
6374;SDS011;35400;45.472;-122.822;2022-12-07T06:51:25;37.67;;;25.87;;
6374;SDS011;35400;45.472;-122.822;2022-12-07T06:53:52;29.93;;;20.53;;
6374;SDS011;35400;45.472;-122.822;2022-12-07T06:56:19;30.53;;;19.33;;
6374;SDS011;35400;45.472;-122.822;2022-12-07T06:58:46;32.00;;;20.10;;
6374;SDS011;35400;45.472;-122.822;2022-12-07T07:01:15;29.87;;;19.67;;
6374;SDS011;35400;45.472;-122.822;2022-12-07T07:03:43;30.53;;;19.67;;
6374;SDS011;35400;45.472;-122.822;2022-12-07T07:06:12;29.17;;;19.07;;
6374;SDS011;35400;45.472;-122.822;2022-12-07T07:08:40;27.90;;;18.77;;
6374;SDS011;35400;45.472;-122.822;2022-12-07T07:11:08;25.93;;;17.87;;
6374;SDS011;35400;45.472;-122.822;2022-12-07T07:13:37;27.43;;;16.93;;
6374;SDS011;35400;45.472;-122.822;2022-12-07T07:16:05;27.13;;;18.10;;
6374;SDS011;35400;45.472;-122.822;2022-12-07T07:18:33;26.37;;;18.37;;
6374;SDS011;35400;45.472;-122.822;2022-12-07T07:21:01;28.10;;;18.57;;
6374;SDS011;35400;45.472;-122.822;2022-12-07T07:23:28;27.17;;;17.83;;
6374;SDS011;35400;45.472;-122.822;2022-12-07T07:25:55;24.57;;;17.73;;
6374;SDS011;35400;45.472;-122.822;2022-12-07T07:28:22;29.20;;;18.37;;
6374;SDS011;35400;45.472;-122.822;2022-12-07T07:30:50;28.80;;;18.90;;
6374;SDS011;35400;45.472;-122.822;2022-12-07T07:33:17;29.43;;;18.77;;
6374;SDS011;35400;45.472;-122.822;2022-12-07T07:35:44;29.60;;;19.40;;
6374;SDS011;35400;45.472;-122.822;2022-12-07T07:38:11;29.63;;;20.23;;
6374;SDS011;35400;45.472;-122.822;2022-12-07T07:40:38;33.00;;;20.57;;
6374;SDS011;35400;45.472;-122.822;2022-12-07T07:43:05;35.40;;;22.57;;
6374;SDS011;35400;45.472;-122.822;2022-12-07T07:45:33;30.70;;;19.93;;
6374;SDS011;35400;45.472;-122.822;2022-12-07T07:48:00;30.93;;;19.00;;
6374;SDS011;35400;45.472;-122.822;2022-12-07T07:50:27;30.90;;;20.33;;
6374;SDS011;35400;45.472;-122.822;2022-12-07T07:52:55;31.07;;;20.60;;
6374;SDS011;35400;45.472;-122.822;2022-12-07T07:55:24;27.63;;;17.80;;
6374;SDS011;35400;45.472;-122.822;2022-12-07T07:57:51;26.70;;;17.30;;
6374;SDS011;35400;45.472;-122.822;2022-12-07T08:00:18;29.17;;;18.40;;
6374;SDS011;35400;45.472;-122.822;2022-12-07T08:02:45;23.83;;;16.47;;
6374;SDS011;35400;45.472;-122.822;2022-12-07T08:05:13;25.93;;;17.67;;
6374;SDS011;35400;45.472;-122.822;2022-12-07T08:07:40;28.13;;;17.53;;
6374;SDS011;35400;45.472;-122.822;2022-12-07T08:10:09;23.43;;;15.80;;
6374;SDS011;35400;45.472;-122.822;2022-12-07T08:12:39;28.10;;;16.70;;
6374;SDS011;35400;45.472;-122.822;2022-12-07T08:15:28;25.73;;;17.03;;
6374;SDS011;35400;45.472;-122.822;2022-12-07T08:17:57;25.30;;;16.83;;
6374;SDS011;35400;45.472;-122.822;2022-12-07T08:20:24;26.53;;;17.60;;
6374;SDS011;35400;45.472;-122.822;2022-12-07T08:22:52;26.37;;;17.37;;
6374;SDS011;35400;45.472;-122.822;2022-12-07T08:25:19;24.63;;;16.80;;
6374;SDS011;35400;45.472;-122.822;2022-12-07T08:27:48;27.13;;;17.17;;
6374;SDS011;35400;45.472;-122.822;2022-12-07T08:30:15;23.93;;;17.37;;
6374;SDS011;35400;45.472;-122.822;2022-12-07T08:32:46;25.27;;;17.13;;
6374;SDS011;35400;45.472;-122.822;2022-12-07T08:35:14;27.10;;;17.63;;
6374;SDS011;35400;45.472;-122.822;2022-12-07T08:37:42;26.17;;;17.80;;
6374;SDS011;35400;45.472;-122.822;2022-12-07T08:40:10;27.67;;;17.00;;
6374;SDS011;35400;45.472;-122.822;2022-12-07T08:42:43;26.23;;;17.60;;
6374;SDS011;35400;45.472;-122.822;2022-12-07T08:45:15;27.10;;;16.77;;
6374;SDS011;35400;45.472;-122.822;2022-12-07T08:47:56;26.17;;;16.53;;
6374;SDS011;35400;45.472;-122.822;2022-12-07T08:50:31;26.23;;;16.57;;
6374;SDS011;35400;45.472;-122.822;2022-12-07T08:53:00;24.73;;;17.37;;
6374;SDS011;35400;45.472;-122.822;2022-12-07T08:55:28;25.67;;;16.77;;
6374;SDS011;35400;45.472;-122.822;2022-12-07T08:57:57;28.17;;;16.87;;
6374;SDS011;35400;45.472;-122.822;2022-12-07T09:00:25;24.67;;;16.97;;
6374;SDS011;35400;45.472;-122.822;2022-12-07T09:02:53;24.47;;;16.17;;
6374;SDS011;35400;45.472;-122.822;2022-12-07T09:05:20;24.20;;;16.20;;
6374;SDS011;35400;45.472;-122.822;2022-12-07T09:07:49;25.87;;;16.67;;
6374;SDS011;35400;45.472;-122.822;2022-12-07T09:10:21;25.20;;;15.97;;
6374;SDS011;35400;45.472;-122.822;2022-12-07T09:12:49;24.77;;;17.03;;
6374;SDS011;35400;45.472;-122.822;2022-12-07T09:15:16;25.17;;;17.67;;
6374;SDS011;35400;45.472;-122.822;2022-12-07T09:17:43;26.83;;;16.60;;
6374;SDS011;35400;45.472;-122.822;2022-12-07T09:20:11;25.67;;;17.27;;
6374;SDS011;35400;45.472;-122.822;2022-12-07T09:22:38;26.57;;;17.20;;
6374;SDS011;35400;45.472;-122.822;2022-12-07T09:25:05;27.50;;;18.27;;
6374;SDS011;35400;45.472;-122.822;2022-12-07T09:27:33;27.73;;;18.47;;
6374;SDS011;35400;45.472;-122.822;2022-12-07T09:30:00;25.97;;;17.33;;
6374;SDS011;35400;45.472;-122.822;2022-12-07T09:32:27;23.70;;;16.87;;
6374;SDS011;35400;45.472;-122.822;2022-12-07T09:34:54;28.17;;;18.33;;
6374;SDS011;35400;45.472;-122.822;2022-12-07T09:37:21;27.47;;;17.23;;
6374;SDS011;35400;45.472;-122.822;2022-12-07T09:39:48;25.97;;;17.63;;
6374;SDS011;35400;45.472;-122.822;2022-12-07T09:42:35;27.13;;;18.20;;
6374;SDS011;35400;45.472;-122.822;2022-12-07T09:45:52;25.77;;;16.97;;
6374;SDS011;35400;45.472;-122.822;2022-12-07T09:48:03;26.17;;;17.03;;
6374;SDS011;35400;45.472;-122.822;2022-12-07T09:50:31;29.23;;;18.67;;
6374;SDS011;35400;45.472;-122.822;2022-12-07T09:53:08;26.93;;;17.73;;
6374;SDS011;35400;45.472;-122.822;2022-12-07T09:55:41;27.23;;;17.33;;
6374;SDS011;35400;45.472;-122.822;2022-12-07T09:58:12;29.63;;;18.73;;
6374;SDS011;35400;45.472;-122.822;2022-12-07T10:00:49;24.83;;;16.67;;
6374;SDS011;35400;45.472;-122.822;2022-12-07T10:03:20;27.53;;;17.27;;
6374;SDS011;35400;45.472;-122.822;2022-12-07T10:05:48;27.57;;;17.57;;
6374;SDS011;35400;45.472;-122.822;2022-12-07T10:08:17;29.70;;;18.67;;
6374;SDS011;35400;45.472;-122.822;2022-12-07T10:10:45;28.10;;;18.30;;
6374;SDS011;35400;45.472;-122.822;2022-12-07T10:13:20;27.67;;;18.17;;
6374;SDS011;35400;45.472;-122.822;2022-12-07T10:16:53;26.40;;;18.30;;
6374;SDS011;35400;45.472;-122.822;2022-12-07T10:19:20;29.57;;;17.43;;
6374;SDS011;35400;45.472;-122.822;2022-12-07T10:22:13;28.67;;;18.67;;
6374;SDS011;35400;45.472;-122.822;2022-12-07T10:24:43;27.70;;;19.13;;
6374;SDS011;35400;45.472;-122.822;2022-12-07T10:27:32;26.40;;;17.33;;
6374;SDS011;35400;45.472;-122.822;2022-12-07T10:29:59;27.60;;;18.60;;
6374;SDS011;35400;45.472;-122.822;2022-12-07T10:32:34;26.90;;;18.07;;
6374;SDS011;35400;45.472;-122.822;2022-12-07T10:37:59;28.47;;;17.47;;
6374;SDS011;35400;45.472;-122.822;2022-12-07T10:43:30;27.03;;;17.43;;
6374;SDS011;35400;45.472;-122.822;2022-12-07T10:51:20;26.20;;;16.80;;
6374;SDS011;35400;45.472;-122.822;2022-12-07T10:54:10;25.37;;;16.13;;
6374;SDS011;35400;45.472;-122.822;2022-12-07T11:11:14;28.67;;;18.90;;
6374;SDS011;35400;45.472;-122.822;2022-12-07T11:13:56;29.43;;;18.40;;
6374;SDS011;35400;45.472;-122.822;2022-12-07T11:19:14;26.67;;;17.17;;
6374;SDS011;35400;45.472;-122.822;2022-12-07T11:30:36;27.67;;;18.57;;
6374;SDS011;35400;45.472;-122.822;2022-12-07T11:38:15;28.70;;;18.67;;
6374;SDS011;35400;45.472;-122.822;2022-12-07T11:40:45;29.23;;;19.10;;
6374;SDS011;35400;45.472;-122.822;2022-12-07T11:43:18;31.87;;;19.27;;
6374;SDS011;35400;45.472;-122.822;2022-12-07T11:48:33;30.00;;;19.63;;
6374;SDS011;35400;45.472;-122.822;2022-12-07T11:51:17;30.03;;;18.67;;
6374;SDS011;35400;45.472;-122.822;2022-12-07T11:56:34;29.10;;;18.47;;
6374;SDS011;35400;45.472;-122.822;2022-12-07T12:02:26;30.93;;;19.40;;
6374;SDS011;35400;45.472;-122.822;2022-12-07T12:07:40;28.80;;;18.70;;
6374;SDS011;35400;45.472;-122.822;2022-12-07T12:15:57;31.13;;;19.10;;
6374;SDS011;35400;45.472;-122.822;2022-12-07T12:18:40;28.67;;;17.93;;
6374;SDS011;35400;45.472;-122.822;2022-12-07T12:21:29;27.93;;;17.13;;
6374;SDS011;35400;45.472;-122.822;2022-12-07T12:24:00;27.60;;;18.07;;
6374;SDS011;35400;45.472;-122.822;2022-12-07T12:27:01;27.47;;;17.77;;
6374;SDS011;35400;45.472;-122.822;2022-12-07T12:29:37;26.70;;;17.73;;
6374;SDS011;35400;45.472;-122.822;2022-12-07T12:32:52;27.90;;;17.47;;
6374;SDS011;35400;45.472;-122.822;2022-12-07T12:35:02;30.67;;;19.00;;
6374;SDS011;35400;45.472;-122.822;2022-12-07T12:37:51;27.90;;;17.87;;
6374;SDS011;35400;45.472;-122.822;2022-12-07T12:42:57;27.70;;;18.70;;
6374;SDS011;35400;45.472;-122.822;2022-12-07T12:45:25;27.70;;;18.87;;
6374;SDS011;35400;45.472;-122.822;2022-12-07T12:47:57;24.13;;;17.97;;
6374;SDS011;35400;45.472;-122.822;2022-12-07T12:50:31;25.90;;;18.37;;
6374;SDS011;35400;45.472;-122.822;2022-12-07T12:55:52;28.63;;;18.60;;
6374;SDS011;35400;45.472;-122.822;2022-12-07T12:58:36;26.53;;;18.07;;
6374;SDS011;35400;45.472;-122.822;2022-12-07T13:03:54;26.13;;;17.57;;
6374;SDS011;35400;45.472;-122.822;2022-12-07T13:08:51;27.17;;;18.37;;
6374;SDS011;35400;45.472;-122.822;2022-12-07T13:20:00;26.10;;;17.53;;
6374;SDS011;35400;45.472;-122.822;2022-12-07T13:27:37;27.20;;;17.57;;
6374;SDS011;35400;45.472;-122.822;2022-12-07T13:30:13;29.13;;;18.70;;
6374;SDS011;35400;45.472;-122.822;2022-12-07T13:32:43;30.23;;;18.40;;
6374;SDS011;35400;45.472;-122.822;2022-12-07T13:35:33;25.93;;;17.60;;
6374;SDS011;35400;45.472;-122.822;2022-12-07T13:38:15;30.83;;;19.13;;
6374;SDS011;35400;45.472;-122.822;2022-12-07T13:41:26;28.33;;;17.90;;
6374;SDS011;35400;45.472;-122.822;2022-12-07T13:44:05;26.20;;;17.10;;
6374;SDS011;35400;45.472;-122.822;2022-12-07T13:46:44;29.67;;;17.93;;
6374;SDS011;35400;45.472;-122.822;2022-12-07T13:49:26;29.80;;;18.13;;
6374;SDS011;35400;45.472;-122.822;2022-12-07T13:55:06;29.27;;;18.53;;
6374;SDS011;35400;45.472;-122.822;2022-12-07T13:57:41;33.57;;;19.77;;
6374;SDS011;35400;45.472;-122.822;2022-12-07T14:00:15;35.30;;;20.07;;
6374;SDS011;35400;45.472;-122.822;2022-12-07T14:02:57;33.10;;;19.23;;
6374;SDS011;35400;45.472;-122.822;2022-12-07T14:06:02;28.40;;;17.97;;
6374;SDS011;35400;45.472;-122.822;2022-12-07T14:08:41;31.43;;;18.23;;
6374;SDS011;35400;45.472;-122.822;2022-12-07T14:11:10;29.37;;;17.77;;
6374;SDS011;35400;45.472;-122.822;2022-12-07T14:13:47;30.57;;;18.43;;
6374;SDS011;35400;45.472;-122.822;2022-12-07T14:16:23;31.03;;;17.83;;
6374;SDS011;35400;45.472;-122.822;2022-12-07T14:18:58;27.43;;;17.60;;
6374;SDS011;35400;45.472;-122.822;2022-12-07T14:21:27;33.80;;;18.83;;
6374;SDS011;35400;45.472;-122.822;2022-12-07T14:24:29;30.00;;;18.27;;
6374;SDS011;35400;45.472;-122.822;2022-12-07T14:26:49;29.37;;;17.90;;
6374;SDS011;35400;45.472;-122.822;2022-12-07T14:29:30;29.73;;;17.07;;
6374;SDS011;35400;45.472;-122.822;2022-12-07T14:32:10;28.27;;;16.53;;
6374;SDS011;35400;45.472;-122.822;2022-12-07T14:35:11;31.93;;;16.80;;
6374;SDS011;35400;45.472;-122.822;2022-12-07T14:37:41;27.17;;;17.37;;
6374;SDS011;35400;45.472;-122.822;2022-12-07T14:40:12;29.07;;;17.93;;
6374;SDS011;35400;45.472;-122.822;2022-12-07T14:42:45;28.43;;;16.67;;
6374;SDS011;35400;45.472;-122.822;2022-12-07T14:45:15;25.83;;;16.57;;
6374;SDS011;35400;45.472;-122.822;2022-12-07T14:47:45;29.43;;;16.33;;
6374;SDS011;35400;45.472;-122.822;2022-12-07T14:50:13;26.40;;;16.93;;
6374;SDS011;35400;45.472;-122.822;2022-12-07T14:52:46;31.60;;;17.77;;
6374;SDS011;35400;45.472;-122.822;2022-12-07T14:55:26;30.47;;;17.37;;
6374;SDS011;35400;45.472;-122.822;2022-12-07T14:57:55;30.20;;;17.63;;
6374;SDS011;35400;45.472;-122.822;2022-12-07T15:00:23;30.17;;;16.53;;
6374;SDS011;35400;45.472;-122.822;2022-12-07T15:02:52;28.80;;;15.90;;
6374;SDS011;35400;45.472;-122.822;2022-12-07T15:05:19;28.33;;;17.73;;
6374;SDS011;35400;45.472;-122.822;2022-12-07T15:07:46;32.17;;;18.83;;
6374;SDS011;35400;45.472;-122.822;2022-12-07T15:10:16;31.70;;;18.67;;
6374;SDS011;35400;45.472;-122.822;2022-12-07T15:12:45;27.50;;;18.10;;
6374;SDS011;35400;45.472;-122.822;2022-12-07T15:15:12;31.10;;;17.03;;
6374;SDS011;35400;45.472;-122.822;2022-12-07T15:17:40;29.73;;;17.53;;
6374;SDS011;35400;45.472;-122.822;2022-12-07T15:20:13;29.87;;;17.83;;
6374;SDS011;35400;45.472;-122.822;2022-12-07T15:22:42;32.80;;;17.80;;
6374;SDS011;35400;45.472;-122.822;2022-12-07T15:25:12;28.33;;;16.87;;
6374;SDS011;35400;45.472;-122.822;2022-12-07T15:27:40;28.07;;;16.00;;
6374;SDS011;35400;45.472;-122.822;2022-12-07T15:30:07;28.43;;;18.17;;
6374;SDS011;35400;45.472;-122.822;2022-12-07T15:32:34;30.83;;;18.20;;
6374;SDS011;35400;45.472;-122.822;2022-12-07T15:35:01;28.33;;;16.50;;
6374;SDS011;35400;45.472;-122.822;2022-12-07T15:37:28;25.50;;;15.83;;
6374;SDS011;35400;45.472;-122.822;2022-12-07T15:39:55;27.20;;;15.90;;
6374;SDS011;35400;45.472;-122.822;2022-12-07T15:42:22;26.57;;;16.13;;
6374;SDS011;35400;45.472;-122.822;2022-12-07T15:44:49;25.93;;;16.77;;
6374;SDS011;35400;45.472;-122.822;2022-12-07T15:47:31;27.40;;;15.27;;
6374;SDS011;35400;45.472;-122.822;2022-12-07T15:50:07;27.93;;;15.57;;
6374;SDS011;35400;45.472;-122.822;2022-12-07T15:52:36;27.47;;;16.20;;
6374;SDS011;35400;45.472;-122.822;2022-12-07T15:55:03;29.43;;;16.77;;
6374;SDS011;35400;45.472;-122.822;2022-12-07T15:57:31;26.10;;;16.23;;
6374;SDS011;35400;45.472;-122.822;2022-12-07T15:59:59;29.73;;;16.67;;
6374;SDS011;35400;45.472;-122.822;2022-12-07T16:02:26;28.73;;;16.80;;
6374;SDS011;35400;45.472;-122.822;2022-12-07T16:04:53;29.03;;;17.07;;
6374;SDS011;35400;45.472;-122.822;2022-12-07T16:07:20;29.77;;;16.70;;
6374;SDS011;35400;45.472;-122.822;2022-12-07T16:09:47;31.00;;;17.53;;
6374;SDS011;35400;45.472;-122.822;2022-12-07T16:12:15;30.50;;;17.40;;
6374;SDS011;35400;45.472;-122.822;2022-12-07T16:14:42;30.30;;;17.87;;
6374;SDS011;35400;45.472;-122.822;2022-12-07T16:17:09;33.13;;;18.97;;
6374;SDS011;35400;45.472;-122.822;2022-12-07T16:19:36;31.77;;;17.07;;
6374;SDS011;35400;45.472;-122.822;2022-12-07T16:22:04;27.87;;;16.03;;
6374;SDS011;35400;45.472;-122.822;2022-12-07T16:24:31;33.67;;;16.70;;